Time;durP1;ratioP1;P1;durP2;ratioP2;P2;SDS_P1;SDS_P2;PMS_P1;PMS_P2;Temp;Humidity;BMP_temperature;BMP_pressure;BME280_temperature;BME280_humidity;BME280_pressure;Samples;Min_cycle;Max_cycle;Signal;HPM_P1;HPM_P2
2022/10/22 00:01:19;;;;;;;15.30;9.55;;;15.50;63.40;;;;;;4953873;28;20035;-77
2022/10/22 00:03:48;;;;;;;14.10;9.27;;;15.50;63.40;;;;;;4953916;29;20031;-82
2022/10/22 00:06:14;;;;;;;17.55;9.00;;;15.50;63.40;;;;;;4954210;28;20031;-78
2022/10/22 00:08:39;;;;;;;14.73;8.88;;;15.50;63.20;;;;;;4953815;28;20028;-78
2022/10/22 00:11:11;;;;;;;18.60;8.75;;;15.50;63.20;;;;;;4953637;29;20059;-77
2022/10/22 00:13:37;;;;;;;13.32;9.40;;;15.50;63.20;;;;;;4953377;29;20051;-80
2022/10/22 00:16:03;;;;;;;17.75;11.20;;;15.60;63.20;;;;;;4953707;29;20031;-80
2022/10/22 00:18:29;;;;;;;17.92;11.75;;;15.60;63.50;;;;;;4936580;29;20058;-76
2022/10/22 00:20:55;;;;;;;17.42;10.52;;;15.60;63.60;;;;;;4953797;28;20023;-80
2022/10/22 00:23:21;;;;;;;20.05;9.68;;;15.60;63.50;;;;;;4936074;29;20038;-83
2022/10/22 00:25:47;;;;;;;17.42;11.32;;;15.60;63.50;;;;;;4953141;29;20031;-76
2022/10/22 00:28:13;;;;;;;20.75;11.80;;;15.50;63.70;;;;;;4936405;28;20015;-80
2022/10/22 00:30:39;;;;;;;15.65;11.05;;;15.50;64.00;;;;;;4936227;28;20445;-83
2022/10/22 00:33:05;;;;;;;20.27;11.57;;;15.50;64.00;;;;;;4935931;28;20117;-82
2022/10/22 00:35:32;;;;;;;24.23;12.25;;;15.50;63.90;;;;;;4953577;28;20024;-84
2022/10/22 00:37:58;;;;;;;13.73;9.77;;;15.50;63.90;;;;;;4953382;28;20489;-78
2022/10/22 00:40:23;;;;;;;22.42;10.85;;;15.50;63.80;;;;;;4953348;28;20106;-80
2022/10/22 00:42:49;;;;;;;20.95;11.23;;;15.50;63.90;;;;;;4953308;28;20023;-76
2022/10/22 00:45:25;;;;;;;20.17;10.68;;;15.50;64.20;;;;;;4952940;28;20069;-81
2022/10/22 00:48:10;;;;;;;18.02;10.00;;;15.50;64.20;;;;;;4953316;28;20539;-78
2022/10/22 00:50:47;;;;;;;14.63;10.23;;;15.50;64.00;;;;;;4952814;29;20028;-78
2022/10/22 00:53:19;;;;;;;26.23;11.65;;;15.50;63.90;;;;;;4952982;28;20051;-81
2022/10/22 00:55:48;;;;;;;19.63;12.32;;;15.50;63.90;;;;;;4953320;28;20365;-80
2022/10/22 00:58:15;;;;;;;18.63;11.27;;;15.50;64.00;;;;;;4952742;29;20024;-81
2022/10/22 01:00:41;;;;;;;15.07;10.98;;;15.50;64.00;;;;;;4968017;28;20027;-78
2022/10/22 01:03:07;;;;;;;21.25;10.70;;;15.50;63.90;;;;;;4950528;28;20027;-80
2022/10/22 01:05:43;;;;;;;16.40;10.20;;;15.50;64.00;;;;;;4952708;28;20392;-77
2022/10/22 01:08:19;;;;;;;12.57;9.52;;;15.50;64.00;;;;;;4956981;28;20050;-82
2022/10/22 01:11:00;;;;;;;16.83;9.30;;;15.50;63.90;;;;;;4939146;28;20070;-79
2022/10/22 01:14:00;;;;;;;12.05;9.20;;;15.50;63.90;;;;;;4941723;28;20043;-74
2022/10/22 01:16:48;;;;;;;15.70;8.82;;;15.50;63.80;;;;;;4999663;28;20025;-78
2022/10/22 01:19:39;;;;;;;14.48;9.23;;;15.50;63.80;;;;;;4998033;28;20106;-79
2022/10/22 01:22:26;;;;;;;11.82;8.63;;;15.50;63.80;;;;;;4936515;28;20102;-75
2022/10/22 01:25:11;;;;;;;13.80;9.40;;;15.50;63.70;;;;;;4964671;28;20031;-80
2022/10/22 01:27:45;;;;;;;11.90;8.48;;;15.50;63.70;;;;;;4971499;28;20160;-79
2022/10/22 01:30:14;;;;;;;12.90;9.43;;;15.50;63.70;;;;;;4945301;28;20031;-77
2022/10/22 01:32:48;;;;;;;13.73;9.73;;;15.60;63.80;;;;;;4934925;28;20037;-76
2022/10/22 01:35:22;;;;;;;;;;;15.50;63.80;;;;;;4955575;28;20024;-78
2022/10/22 01:37:52;;;;;;;14.87;8.20;;;15.50;63.50;;;;;;4955580;28;20329;-78
2022/10/22 01:40:20;;;;;;;12.93;9.80;;;15.60;63.50;;;;;;4938395;28;20433;-77
2022/10/22 01:43:03;;;;;;;18.77;9.43;;;15.60;63.60;;;;;;4955469;28;20416;-76
2022/10/22 01:45:34;;;;;;;14.32;9.23;;;15.50;63.70;;;;;;4955432;28;20034;-76
2022/10/22 01:48:19;;;;;;;12.00;9.27;;;15.50;63.70;;;;;;4955305;28;20031;-79
2022/10/22 01:51:19;;;;;;;13.77;8.45;;;15.50;63.70;;;;;;4938063;28;20023;-75
2022/10/22 01:54:11;;;;;;;12.13;8.65;;;15.50;63.70;;;;;;4938158;28;20039;-78
2022/10/22 01:57:12;;;;;;;12.45;8.13;;;15.40;63.50;;;;;;4955244;28;20024;-77
2022/10/22 01:59:59;;;;;;;11.52;8.30;;;15.40;63.60;;;;;;4955079;28;20031;-77
2022/10/22 02:02:40;;;;;;;13.15;8.18;;;15.40;63.60;;;;;;4937799;28;20543;-78
2022/10/22 02:05:17;;;;;;;21.55;9.63;;;15.30;63.80;;;;;;4955276;28;20027;-82
2022/10/22 02:07:48;;;;;;;13.75;8.20;;;15.30;64.10;;;;;;4938091;28;20096;-74
2022/10/22 02:10:16;;;;;;;13.40;8.80;;;15.30;64.10;;;;;;4937726;28;20027;-78
2022/10/22 02:12:44;;;;;;;14.00;9.30;;;15.30;64.30;;;;;;4954635;29;20031;-80
2022/10/22 02:15:11;;;;;;;15.57;9.27;;;15.30;64.30;;;;;;4957474;28;20027;-75
2022/10/22 02:17:38;;;;;;;14.15;9.43;;;15.30;64.30;;;;;;4955248;29;20020;-77
2022/10/22 02:20:28;;;;;;;14.23;9.55;;;15.30;64.40;;;;;;4938028;28;20484;-75
2022/10/22 02:22:55;;;;;;;14.40;10.05;;;15.30;64.40;;;;;;4946603;28;20042;-79
2022/10/22 02:25:22;;;;;;;16.63;10.88;;;15.40;64.30;;;;;;4954828;29;20507;-79
2022/10/22 02:28:00;;;;;;;15.90;10.60;;;15.40;64.20;;;;;;4954636;29;20077;-78
2022/10/22 02:30:25;;;;;;;11.73;8.77;;;15.30;64.10;;;;;;4954423;28;20185;-79
2022/10/22 02:32:59;;;;;;;15.00;9.18;;;15.30;63.90;;;;;;4954671;28;20122;-75
2022/10/22 02:35:27;;;;;;;14.93;10.00;;;15.30;63.90;;;;;;4954705;28;20023;-79
2022/10/22 02:37:55;;;;;;;13.50;9.57;;;15.20;64.60;;;;;;4954555;28;20121;-76
2022/10/22 02:40:22;;;;;;;14.57;10.15;;;15.20;63.70;;;;;;4954495;29;20487;-78
2022/10/22 02:42:49;;;;;;;15.65;10.95;;;15.10;63.80;;;;;;4954342;28;20030;-79
2022/10/22 02:45:17;;;;;;;19.40;12.05;;;15.10;64.10;;;;;;4954195;28;20031;-76
2022/10/22 02:47:43;;;;;;;19.60;10.57;;;15.00;64.40;;;;;;4954390;29;20114;-77
2022/10/22 02:50:09;;;;;;;28.38;11.45;;;15.00;64.60;;;;;;4954341;29;20103;-75
2022/10/22 02:52:35;;;;;;;19.58;11.70;;;14.90;64.80;;;;;;4954155;28;20042;-80
2022/10/22 02:55:01;;;;;;;20.42;12.63;;;14.90;65.30;;;;;;4954456;28;20027;-79
2022/10/22 02:57:27;;;;;;;19.55;11.98;;;14.80;65.60;;;;;;4918985;28;20075;-76
2022/10/22 02:59:52;;;;;;;17.10;11.13;;;14.80;65.60;;;;;;4941689;28;20357;-78
2022/10/22 03:02:18;;;;;;;14.80;10.57;;;14.80;65.60;;;;;;4952794;29;20030;-76
2022/10/22 03:04:44;;;;;;;11.65;9.32;;;14.80;65.50;;;;;;4936960;28;20035;-77
2022/10/22 03:07:10;;;;;;;14.90;9.40;;;14.80;65.50;;;;;;4953929;28;20031;-76
2022/10/22 03:09:36;;;;;;;14.75;10.48;;;14.80;65.60;;;;;;4953536;29;20030;-78
2022/10/22 03:12:01;;;;;;;14.50;9.98;;;14.80;65.80;;;;;;4954278;28;20019;-76
2022/10/22 03:14:27;;;;;;;18.80;10.60;;;14.80;65.90;;;;;;4954018;28;20052;-76
2022/10/22 03:16:53;;;;;;;18.02;9.88;;;14.80;65.80;;;;;;4954044;28;20028;-75
2022/10/22 03:19:19;;;;;;;19.02;10.35;;;14.90;65.90;;;;;;4953945;29;20031;-76
2022/10/22 03:21:54;;;;;;;16.40;10.25;;;14.90;65.90;;;;;;4954064;28;20031;-78
2022/10/22 03:24:28;;;;;;;18.15;10.25;;;14.90;66.00;;;;;;4953941;28;20023;-75
2022/10/22 03:26:55;;;;;;;16.80;11.15;;;14.90;66.00;;;;;;4953770;29;20468;-78
2022/10/22 03:29:24;;;;;;;17.70;10.68;;;15.00;66.10;;;;;;4953371;28;20114;-76
2022/10/22 03:31:52;;;;;;;14.20;10.63;;;15.00;66.20;;;;;;4953598;29;20026;-78
2022/10/22 03:34:18;;;;;;;20.20;11.25;;;15.00;66.20;;;;;;4953581;28;20023;-79
2022/10/22 03:36:44;;;;;;;23.13;12.07;;;15.00;66.30;;;;;;4953520;28;20029;-75
2022/10/22 03:39:13;;;;;;;30.40;12.00;;;15.00;66.30;;;;;;4953547;28;20077;-76
2022/10/22 03:41:40;;;;;;;26.40;12.02;;;15.00;66.40;;;;;;4953413;28;20035;-79
2022/10/22 03:44:06;;;;;;;18.15;11.55;;;15.10;66.60;;;;;;4953330;29;20035;-77
2022/10/22 03:46:32;;;;;;;17.13;9.27;;;15.10;66.60;;;;;;4953411;29;20094;-75
2022/10/22 03:48:58;;;;;;;18.58;9.88;;;15.10;66.50;;;;;;4936191;28;20037;-78
2022/10/22 03:51:26;;;;;;;15.13;9.50;;;15.10;66.30;;;;;;4953448;28;20106;-76
2022/10/22 03:53:53;;;;;;;22.58;11.50;;;15.10;66.30;;;;;;4953266;28;20098;-77
2022/10/22 03:56:19;;;;;;;19.45;11.25;;;15.10;66.50;;;;;;4952524;29;20024;-79
2022/10/22 03:58:44;;;;;;;18.60;11.30;;;15.10;66.60;;;;;;4953232;29;20106;-77
2022/10/22 04:01:12;;;;;;;17.95;10.85;;;15.10;66.60;;;;;;4936138;28;20028;-76
2022/10/22 04:03:38;;;;;;;19.70;10.48;;;15.10;66.70;;;;;;4936028;29;20073;-75
2022/10/22 04:06:09;;;;;;;17.75;11.32;;;15.10;66.60;;;;;;4953350;29;20023;-75
2022/10/22 04:08:37;;;;;;;19.55;11.75;;;15.10;66.70;;;;;;4953499;28;20066;-75
2022/10/22 04:11:06;;;;;;;19.25;11.45;;;15.20;66.70;;;;;;4953137;29;20473;-80
2022/10/22 04:13:31;;;;;;;17.25;10.27;;;15.20;66.80;;;;;;4953108;28;20188;-79
2022/10/22 04:16:17;;;;;;;24.08;12.25;;;15.20;66.70;;;;;;4953448;28;20547;-76
2022/10/22 04:18:45;;;;;;;16.60;10.52;;;15.20;66.70;;;;;;4953221;28;20034;-79
2022/10/22 04:21:12;;;;;;;18.60;12.27;;;15.20;66.40;;;;;;4952885;29;20522;-74
2022/10/22 04:23:42;;;;;;;21.05;10.63;;;15.30;66.50;;;;;;4952873;28;20020;-78
2022/10/22 04:26:08;;;;;;;13.85;10.85;;;15.30;66.40;;;;;;4935806;28;20031;-77
2022/10/22 04:28:34;;;;;;;17.35;10.25;;;15.30;66.10;;;;;;4952847;28;20023;-78
2022/10/22 04:31:05;;;;;;;16.02;11.32;;;15.30;66.10;;;;;;4952519;28;20494;-79
2022/10/22 04:33:31;;;;;;;15.68;11.05;;;15.30;66.00;;;;;;4952779;28;20054;-81
2022/10/22 04:35:57;;;;;;;17.13;11.73;;;15.40;66.10;;;;;;4952647;28;20099;-76
2022/10/22 04:38:23;;;;;;;20.42;11.15;;;15.30;66.00;;;;;;4952644;28;20527;-77
2022/10/22 04:40:48;;;;;;;14.95;11.48;;;15.40;66.00;;;;;;4935625;28;20126;-79
2022/10/22 04:43:14;;;;;;;21.27;11.85;;;15.40;65.90;;;;;;4952759;28;20054;-79
2022/10/22 04:45:40;;;;;;;19.65;10.77;;;15.40;65.90;;;;;;4952798;28;20039;-81
2022/10/22 04:48:06;;;;;;;22.40;13.02;;;15.40;65.80;;;;;;4952683;28;20031;-76
2022/10/22 04:50:32;;;;;;;17.58;10.50;;;15.40;66.00;;;;;;4952476;29;20479;-77
2022/10/22 04:52:58;;;;;;;13.65;10.18;;;15.40;65.90;;;;;;4952811;28;20015;-76
2022/10/22 04:55:23;;;;;;;19.55;12.68;;;15.40;66.00;;;;;;4935668;28;20023;-76
2022/10/22 04:57:49;;;;;;;19.10;11.88;;;15.40;66.10;;;;;;4953750;29;20027;-74
2022/10/22 05:00:15;;;;;;;15.88;11.18;;;15.40;66.20;;;;;;4953414;28;20031;-74
2022/10/22 05:02:43;;;;;;;19.50;11.73;;;15.40;66.20;;;;;;4935344;28;20031;-76
2022/10/22 05:05:10;;;;;;;16.95;12.07;;;15.40;66.10;;;;;;4935269;28;20020;-80
2022/10/22 05:07:36;;;;;;;18.95;11.63;;;15.50;66.20;;;;;;4952055;28;20035;-79
2022/10/22 05:10:02;;;;;;;19.67;11.18;;;15.50;66.20;;;;;;4952281;28;20028;-79
2022/10/22 05:12:29;;;;;;;15.93;10.90;;;15.50;66.20;;;;;;4936050;28;20019;-78
2022/10/22 05:14:55;;;;;;;23.15;11.85;;;15.50;66.10;;;;;;4952745;28;20028;-79
2022/10/22 05:17:21;;;;;;;16.63;11.90;;;15.60;66.10;;;;;;4935291;28;20030;-77
2022/10/22 05:19:47;;;;;;;20.85;11.43;;;15.60;66.00;;;;;;4952390;28;20581;-76
2022/10/22 05:22:12;;;;;;;18.52;11.63;;;15.60;66.00;;;;;;4952370;28;20027;-79
2022/10/22 05:24:38;;;;;;;15.23;11.15;;;15.60;65.90;;;;;;4935072;28;20046;-79
2022/10/22 05:27:04;;;;;;;18.38;11.98;;;15.60;65.80;;;;;;4952075;29;20480;-78
2022/10/22 05:29:30;;;;;;;25.45;13.75;;;15.70;65.80;;;;;;4951843;28;20440;-76
2022/10/22 05:31:56;;;;;;;17.15;11.40;;;15.70;65.70;;;;;;4952090;28;20066;-75
2022/10/22 05:34:22;;;;;;;18.30;10.40;;;15.70;65.70;;;;;;4952015;28;20018;-77
2022/10/22 05:36:47;;;;;;;13.57;9.65;;;15.70;65.60;;;;;;4935066;28;20435;-77
2022/10/22 05:39:13;;;;;;;16.60;10.63;;;15.80;65.60;;;;;;4951919;29;20031;-76
2022/10/22 05:41:39;;;;;;;17.48;11.13;;;15.80;65.60;;;;;;4952059;28;20059;-77
2022/10/22 05:44:05;;;;;;;24.40;10.50;;;15.80;65.60;;;;;;4952109;28;20468;-80
2022/10/22 05:46:34;;;;;;;14.70;10.88;;;15.80;65.60;;;;;;4951875;29;20038;-76
2022/10/22 05:49:03;;;;;;;15.45;10.27;;;15.80;65.70;;;;;;4951775;29;20376;-76
2022/10/22 05:51:31;;;;;;;16.85;11.13;;;15.90;65.80;;;;;;4952131;28;20016;-76
2022/10/22 05:54:02;;;;;;;18.65;12.23;;;15.90;65.80;;;;;;4951772;28;20050;-76
2022/10/22 05:56:30;;;;;;;17.02;12.48;;;15.90;65.60;;;;;;4951974;29;20380;-80
2022/10/22 05:58:56;;;;;;;17.25;12.15;;;15.90;65.60;;;;;;4951875;28;20372;-77
2022/10/22 06:01:28;;;;;;;19.52;12.05;;;15.90;65.60;;;;;;4951627;28;20451;-75
2022/10/22 06:03:56;;;;;;;23.63;12.88;;;15.90;65.60;;;;;;4951945;29;20026;-76
2022/10/22 06:06:33;;;;;;;18.00;12.82;;;15.90;65.70;;;;;;4951813;28;20476;-78
2022/10/22 06:09:06;;;;;;;15.05;11.90;;;15.90;65.60;;;;;;4951786;29;20019;-80
2022/10/22 06:11:32;;;;;;;16.50;11.25;;;15.90;65.70;;;;;;4952743;28;20023;-79
2022/10/22 06:13:58;;;;;;;22.38;14.63;;;15.90;65.80;;;;;;4951612;29;20040;-77
2022/10/22 06:16:24;;;;;;;26.02;16.20;;;15.90;65.80;;;;;;4951676;28;20046;-76
2022/10/22 06:18:50;;;;;;;21.77;16.60;;;15.90;65.90;;;;;;4951428;29;20047;-78
2022/10/22 06:21:16;;;;;;;21.98;16.40;;;16.00;65.90;;;;;;4954415;28;20031;-79
2022/10/22 06:23:42;;;;;;;22.23;15.13;;;15.90;65.70;;;;;;4955017;28;20027;-79
2022/10/22 06:26:10;;;;;;;26.88;18.92;;;15.90;65.90;;;;;;4954821;28;20433;-78
2022/10/22 06:28:36;;;;;;;26.77;17.38;;;15.90;65.80;;;;;;4954513;28;20102;-76
2022/10/22 06:31:03;;;;;;;25.65;18.13;;;15.90;65.90;;;;;;4954392;28;20031;-79
2022/10/22 06:33:31;;;;;;;22.63;14.82;;;15.90;66.00;;;;;;4954476;28;20030;-73
2022/10/22 06:36:11;;;;;;;19.65;13.20;;;15.80;66.10;;;;;;4950878;29;20484;-76
2022/10/22 06:38:37;;;;;;;18.45;13.15;;;15.90;66.30;;;;;;4935217;29;20016;-77
2022/10/22 06:41:08;;;;;;;21.50;13.13;;;15.90;66.40;;;;;;4935407;28;20038;-79
2022/10/22 06:43:33;;;;;;;23.70;13.95;;;15.90;66.60;;;;;;4935211;29;20120;-78
2022/10/22 06:46:04;;;;;;;23.27;13.82;;;16.00;66.80;;;;;;4935215;28;20051;-77
2022/10/22 06:48:30;;;;;;;18.33;11.70;;;16.00;66.90;;;;;;4935086;29;20024;-76
2022/10/22 06:51:01;;;;;;;18.15;13.23;;;16.00;66.90;;;;;;4935114;29;20081;-77
2022/10/22 06:53:26;;;;;;;17.65;13.18;;;16.10;67.00;;;;;;4935024;29;20495;-78
2022/10/22 06:55:52;;;;;;;17.65;13.57;;;16.10;66.90;;;;;;4935215;28;20028;-74
2022/10/22 06:58:18;;;;;;;23.08;14.20;;;16.10;66.90;;;;;;4935130;29;20035;-75
2022/10/22 07:00:44;;;;;;;21.23;14.45;;;16.20;67.00;;;;;;4948834;28;20042;-75
2022/10/22 07:03:13;;;;;;;20.85;14.32;;;16.20;67.80;;;;;;4953941;28;20387;-77
2022/10/22 07:05:40;;;;;;;23.70;16.80;;;16.30;67.00;;;;;;4954335;28;20031;-78
2022/10/22 07:08:06;;;;;;;23.77;17.15;;;16.30;66.90;;;;;;4937078;28;20117;-78
2022/10/22 07:10:32;;;;;;;23.35;16.05;;;16.30;66.70;;;;;;4954035;28;20074;-76
2022/10/22 07:12:58;;;;;;;22.52;13.90;;;16.40;66.60;;;;;;4953629;29;20070;-79
2022/10/22 07:15:24;;;;;;;20.27;15.02;;;16.40;66.50;;;;;;4954225;28;20469;-79
2022/10/22 07:17:50;;;;;;;23.23;14.88;;;16.50;66.60;;;;;;4953989;29;20029;-80
2022/10/22 07:20:19;;;;;;;23.52;14.88;;;16.50;66.80;;;;;;4953948;28;20055;-76
2022/10/22 07:22:45;;;;;;;18.50;13.98;;;16.50;66.80;;;;;;4953976;29;20039;-76
2022/10/22 07:25:11;;;;;;;23.63;14.65;;;16.50;66.70;;;;;;4952505;28;20169;-75
2022/10/22 07:27:37;;;;;;;19.42;14.18;;;16.60;66.70;;;;;;4953436;28;20468;-77
2022/10/22 07:30:03;;;;;;;21.10;13.90;;;16.60;66.70;;;;;;4953732;28;20425;-76
2022/10/22 07:32:29;;;;;;;22.48;14.63;;;16.70;66.90;;;;;;4937432;28;20016;-79
2022/10/22 07:34:55;;;;;;;22.30;15.18;;;16.70;66.70;;;;;;4953304;28;20387;-74
2022/10/22 07:37:21;;;;;;;23.42;14.63;;;16.70;66.40;;;;;;4936704;28;20051;-77
2022/10/22 07:39:47;;;;;;;21.23;14.02;;;16.70;66.50;;;;;;4936496;28;20106;-79
2022/10/22 07:42:13;;;;;;;20.08;13.60;;;16.80;66.70;;;;;;4953442;29;20037;-79
2022/10/22 07:44:39;;;;;;;21.83;14.57;;;16.80;66.80;;;;;;4953643;28;20435;-79
2022/10/22 07:47:05;;;;;;;21.27;15.63;;;16.80;67.00;;;;;;4960036;28;20483;-77
2022/10/22 07:49:31;;;;;;;20.95;14.48;;;16.90;66.80;;;;;;4938805;28;20066;-78
2022/10/22 07:51:57;;;;;;;18.80;13.23;;;16.90;66.70;;;;;;4953212;28;20078;-77
2022/10/22 07:54:23;;;;;;;22.48;13.02;;;17.00;66.50;;;;;;4953207;28;20069;-77
2022/10/22 07:56:49;;;;;;;20.70;12.77;;;17.00;66.40;;;;;;4953781;28;20038;-76
2022/10/22 07:59:15;;;;;;;17.00;12.45;;;17.10;66.40;;;;;;4953246;28;20020;-76
2022/10/22 08:01:40;;;;;;;16.40;12.68;;;17.20;66.20;;;;;;4936255;28;20043;-80
2022/10/22 08:04:08;;;;;;;18.20;13.20;;;17.20;66.00;;;;;;4935994;28;20027;-79
2022/10/22 08:06:34;;;;;;;22.85;13.48;;;17.20;65.90;;;;;;4952831;28;20058;-79
2022/10/22 08:09:00;;;;;;;17.52;13.05;;;17.30;65.80;;;;;;4953025;28;20066;-78
2022/10/22 08:11:26;;;;;;;16.65;12.88;;;17.30;65.60;;;;;;4935965;28;20035;-76
2022/10/22 08:13:52;;;;;;;18.88;13.15;;;17.40;65.40;;;;;;4935431;28;20051;-77
2022/10/22 08:16:18;;;;;;;16.83;12.27;;;17.40;65.20;;;;;;4960687;28;20051;-75
2022/10/22 08:18:44;;;;;;;18.55;13.25;;;17.50;65.10;;;;;;4954940;28;20065;-77
2022/10/22 08:21:12;;;;;;;18.38;13.00;;;17.50;65.00;;;;;;4968353;28;20042;-79
2022/10/22 08:23:38;;;;;;;19.65;13.77;;;17.50;64.90;;;;;;4953391;28;20391;-79
2022/10/22 08:26:04;;;;;;;19.02;13.88;;;17.60;64.70;;;;;;4953054;28;20051;-76
2022/10/22 08:28:34;;;;;;;20.63;12.80;;;17.60;64.60;;;;;;4953002;28;20369;-80
2022/10/22 08:31:00;;;;;;;22.40;14.88;;;17.60;64.50;;;;;;4952896;28;20046;-78
2022/10/22 08:33:26;;;;;;;16.98;13.57;;;17.60;64.30;;;;;;4967055;28;20023;-78
2022/10/22 08:35:52;;;;;;;19.35;14.18;;;17.60;64.30;;;;;;5024282;28;20488;-77
2022/10/22 08:38:19;;;;;;;19.73;14.27;;;17.70;64.40;;;;;;4981274;28;20027;-78
2022/10/22 08:40:50;;;;;;;17.27;13.27;;;17.70;64.40;;;;;;4983399;28;20427;-76
2022/10/22 08:43:40;;;;;;;19.45;13.68;;;17.70;64.40;;;;;;4971036;28;20058;-80
2022/10/22 08:46:16;;;;;;;18.52;13.48;;;17.70;64.40;;;;;;4954932;28;20439;-77
2022/10/22 08:48:51;;;;;;;19.00;13.60;;;17.80;64.50;;;;;;4952235;28;20437;-78
2022/10/22 08:51:23;;;;;;;20.83;15.45;;;17.80;64.60;;;;;;4935350;28;20150;-76
2022/10/22 08:54:13;;;;;;;22.05;15.90;;;17.90;64.80;;;;;;4952551;28;20027;-77
2022/10/22 08:56:44;;;;;;;26.95;16.70;;;17.90;64.60;;;;;;4952721;28;20381;-77
2022/10/22 08:59:25;;;;;;;21.77;15.70;;;17.90;64.40;;;;;;4952810;28;20034;-79
2022/10/22 09:01:53;;;;;;;19.92;15.15;;;18.00;64.40;;;;;;4947270;28;20478;-80
2022/10/22 09:04:29;;;;;;;19.02;14.07;;;18.00;64.20;;;;;;4935310;28;20027;-79
2022/10/22 09:06:58;;;;;;;19.38;13.68;;;18.10;64.20;;;;;;4952875;28;20015;-79
2022/10/22 09:09:29;;;;;;;21.27;14.15;;;18.10;64.20;;;;;;4952725;28;20415;-76
2022/10/22 09:11:58;;;;;;;19.00;13.00;;;18.20;64.30;;;;;;4952365;28;20023;-78
2022/10/22 09:14:24;;;;;;;23.42;15.30;;;18.30;64.30;;;;;;4952152;28;20035;-79
2022/10/22 09:17:09;;;;;;;26.90;15.43;;;18.30;63.80;;;;;;4952149;28;20430;-77
2022/10/22 09:19:40;;;;;;;;;;;18.30;63.40;;;;;;4952571;28;20365;-74
2022/10/22 09:22:49;;;;;;;19.48;14.70;;;18.30;63.70;;;;;;4951864;28;19911;-76
2022/10/22 09:25:22;;;;;;;17.70;13.40;;;18.30;63.20;;;;;;4970779;28;20062;-74
2022/10/22 09:27:49;;;;;;;17.42;13.57;;;18.30;63.20;;;;;;4972050;28;20034;-77
2022/10/22 09:30:22;;;;;;;17.60;13.43;;;18.40;63.10;;;;;;4971675;28;20038;-76
2022/10/22 09:32:59;;;;;;;35.45;19.13;;;18.30;63.20;;;;;;4971574;28;20100;-78
2022/10/22 09:35:25;;;;;;;26.52;16.42;;;18.30;63.40;;;;;;4971709;28;20019;-77
2022/10/22 09:37:55;;;;;;;25.00;15.70;;;18.30;63.50;;;;;;4971918;28;20041;-77
2022/10/22 09:40:21;;;;;;;21.95;14.77;;;18.30;63.60;;;;;;4971928;28;20042;-78
2022/10/22 09:42:48;;;;;;;22.58;13.85;;;18.30;63.80;;;;;;4971638;28;20132;-80
2022/10/22 09:45:24;;;;;;;18.45;14.13;;;18.30;64.00;;;;;;4971377;28;20392;-76
2022/10/22 09:48:25;;;;;;;22.40;14.90;;;18.40;64.40;;;;;;4948408;29;20120;-79
2022/10/22 09:51:18;;;;;;;21.27;14.10;;;18.40;64.40;;;;;;4966709;28;20436;-80
2022/10/22 09:54:32;;;;;;;18.33;13.25;;;18.40;64.40;;;;;;4971701;28;20027;-77
2022/10/22 09:57:12;;;;;;;16.38;12.55;;;18.30;64.60;;;;;;4953294;28;20491;-76
2022/10/22 09:59:42;;;;;;;18.55;12.02;;;18.30;64.90;;;;;;4955037;28;20035;-78
2022/10/22 10:02:12;;;;;;;18.42;12.60;;;18.30;65.00;;;;;;4955142;28;20024;-77
2022/10/22 10:04:49;;;;;;;19.10;12.88;;;18.30;65.20;;;;;;4954590;28;20039;-77
2022/10/22 10:07:19;;;;;;;16.00;11.77;;;18.30;65.70;;;;;;4937283;28;20468;-79
2022/10/22 10:09:45;;;;;;;16.55;10.82;;;18.30;65.80;;;;;;4954961;28;20031;-76
2022/10/22 10:12:33;;;;;;;16.73;10.52;;;18.30;65.90;;;;;;4954463;28;20026;-79
2022/10/22 10:15:26;;;;;;;16.08;11.80;;;18.30;65.90;;;;;;5020700;28;20087;-76
2022/10/22 10:18:28;;;;;;;16.75;12.75;;;18.40;66.20;;;;;;5036742;28;20041;-75
2022/10/22 10:21:16;;;;;;;16.35;11.40;;;18.40;66.30;;;;;;4988470;28;20063;-78
2022/10/22 10:24:13;;;;;;;17.27;13.85;;;18.40;66.00;;;;;;5055837;28;20037;-76
2022/10/22 10:26:47;;;;;;;20.33;14.95;;;18.50;65.90;;;;;;4938114;28;20071;-77
2022/10/22 10:29:26;;;;;;;;;;;18.40;65.70;;;;;;4954845;28;20054;-75
2022/10/22 10:32:13;;;;;;;13.68;11.10;;;18.50;65.50;;;;;;4956115;28;19917;-80
2022/10/22 10:34:53;;;;;;;15.85;12.55;;;18.50;65.70;;;;;;4954437;28;20035;-75
2022/10/22 10:37:29;;;;;;;16.48;11.60;;;18.50;65.80;;;;;;4972658;28;20029;-75
2022/10/22 10:40:27;;;;;;;16.48;10.50;;;18.60;66.00;;;;;;4972216;28;20089;-76
2022/10/22 10:43:24;;;;;;;23.05;12.45;;;18.60;65.90;;;;;;4956138;28;20027;-78
2022/10/22 10:45:50;;;;;;;17.88;13.25;;;18.60;66.00;;;;;;4955758;28;20026;-75
2022/10/22 10:48:42;;;;;;;21.60;14.05;;;18.60;65.80;;;;;;4959677;28;20020;-77
2022/10/22 10:51:46;;;;;;;17.67;12.82;;;18.60;65.70;;;;;;4932803;29;20126;-76
2022/10/22 10:54:39;;;;;;;16.88;12.93;;;18.60;65.70;;;;;;4953944;28;20066;-76
2022/10/22 10:57:35;;;;;;;15.63;12.40;;;18.70;65.50;;;;;;4969431;28;20027;-73
2022/10/22 11:00:04;;;;;;;14.95;12.15;;;18.70;65.50;;;;;;4955665;28;20023;-77
2022/10/22 11:02:45;;;;;;;15.25;11.82;;;18.70;65.50;;;;;;4953841;29;20027;-76
2022/10/22 11:05:32;;;;;;;14.32;10.98;;;18.70;65.60;;;;;;5012133;28;20478;-77
2022/10/22 11:08:02;;;;;;;13.57;11.45;;;18.70;65.50;;;;;;4955977;28;20032;-74
2022/10/22 11:10:43;;;;;;;16.27;11.45;;;18.70;65.50;;;;;;4965767;28;20061;-78
2022/10/22 11:13:30;;;;;;;13.77;10.75;;;18.70;65.60;;;;;;4938320;28;20043;-78
2022/10/22 11:16:11;;;;;;;12.20;9.77;;;18.70;65.70;;;;;;4997056;28;20052;-76
2022/10/22 11:18:46;;;;;;;13.10;9.20;;;18.70;65.70;;;;;;4953049;28;20020;-78
2022/10/22 11:21:46;;;;;;;12.90;9.80;;;18.70;65.70;;;;;;4953816;28;20073;-79
2022/10/22 11:25:04;;;;;;;11.60;8.52;;;18.70;65.80;;;;;;4958801;28;20039;-77
2022/10/22 11:27:48;;;;;;;13.05;9.15;;;18.70;65.80;;;;;;4988664;28;20165;-78
2022/10/22 11:30:17;;;;;;;17.30;10.43;;;18.80;65.90;;;;;;4970352;28;20024;-77
2022/10/22 11:32:46;;;;;;;13.13;10.18;;;18.80;65.90;;;;;;4969699;28;20019;-79
2022/10/22 11:35:16;;;;;;;10.98;8.82;;;18.80;65.90;;;;;;4968792;28;20094;-78
2022/10/22 11:37:44;;;;;;;11.85;8.93;;;18.90;66.00;;;;;;4949815;28;20024;-79
2022/10/22 11:40:15;;;;;;;20.20;9.85;;;18.90;66.10;;;;;;4934503;28;20162;-78
2022/10/22 11:42:51;;;;;;;12.23;9.23;;;19.00;66.10;;;;;;4940240;28;20028;-79
2022/10/22 11:45:17;;;;;;;11.68;9.20;;;19.00;65.90;;;;;;4944218;28;20456;-77
2022/10/22 11:48:10;;;;;;;12.20;9.35;;;19.10;65.60;;;;;;4945906;28;20055;-78
2022/10/22 11:51:00;;;;;;;13.73;10.05;;;19.20;65.50;;;;;;4942707;28;20027;-77
2022/10/22 11:53:31;;;;;;;12.05;9.85;;;19.20;65.00;;;;;;4943826;28;20027;-76
2022/10/22 11:56:05;;;;;;;14.27;11.30;;;19.30;64.70;;;;;;4942535;28;20444;-76
2022/10/22 11:58:46;;;;;;;17.52;9.13;;;19.30;64.40;;;;;;4959535;28;20469;-77
2022/10/22 12:01:12;;;;;;;12.57;8.90;;;19.30;64.40;;;;;;4935486;28;20043;-74
2022/10/22 12:04:11;;;;;;;11.85;8.20;;;19.30;64.40;;;;;;4944355;28;20031;-76
2022/10/22 12:07:30;;;;;;;11.00;8.27;;;19.30;64.50;;;;;;4917704;28;20071;-77
2022/10/22 12:09:57;;;;;;;13.85;9.00;;;19.30;64.90;;;;;;4951696;29;20408;-78
2022/10/22 12:12:23;;;;;;;12.38;9.05;;;19.40;64.80;;;;;;4940440;28;20397;-75
2022/10/22 12:14:56;;;;;;;10.45;8.70;;;19.40;64.70;;;;;;4942672;28;20031;-78
2022/10/22 12:17:23;;;;;;;12.98;7.97;;;19.40;64.70;;;;;;4928248;28;20024;-77
2022/10/22 12:19:58;;;;;;;10.88;8.18;;;19.50;64.80;;;;;;4933621;28;20097;-77
2022/10/22 12:22:28;;;;;;;10.27;8.20;;;19.60;64.90;;;;;;4942820;28;20484;-78
2022/10/22 12:24:59;;;;;;;10.85;7.50;;;19.70;64.90;;;;;;4945314;28;20039;-76
2022/10/22 12:27:32;;;;;;;17.58;8.18;;;19.70;64.60;;;;;;4941150;28;20032;-76
2022/10/22 12:30:00;;;;;;;9.30;7.50;;;19.80;64.40;;;;;;4944983;28;20034;-77
2022/10/22 12:32:35;;;;;;;10.00;7.72;;;19.80;64.40;;;;;;4943137;28;20030;-76
2022/10/22 12:35:19;;;;;;;14.00;8.20;;;19.90;64.30;;;;;;4932934;28;20507;-77
2022/10/22 12:37:48;;;;;;;12.00;8.07;;;20.00;64.50;;;;;;4939641;28;20042;-76
2022/10/22 12:40:25;;;;;;;10.48;8.05;;;20.10;64.60;;;;;;4940515;28;20036;-75
2022/10/22 12:42:57;;;;;;;12.20;7.78;;;20.10;64.30;;;;;;4942989;28;20488;-77
2022/10/22 12:45:27;;;;;;;10.25;7.72;;;20.30;64.30;;;;;;4931615;28;20031;-77
2022/10/22 12:48:04;;;;;;;10.50;7.80;;;20.40;64.20;;;;;;4942512;28;20476;-76
2022/10/22 12:50:36;;;;;;;9.98;7.00;;;20.50;63.80;;;;;;4946921;28;20051;-77
2022/10/22 12:53:03;;;;;;;7.70;6.47;;;20.60;63.70;;;;;;4947456;28;20074;-78
2022/10/22 12:55:32;;;;;;;9.88;6.88;;;20.70;63.60;;;;;;4944527;28;20058;-76